createdAt,value
2022-12-26T00:00:35.021Z,1.93
2022-12-26T00:03:02.611Z,1.60
2022-12-26T00:05:30.184Z,1.70
2022-12-26T00:07:58.930Z,2.40
2022-12-26T00:10:26.348Z,1.83
2022-12-26T00:12:53.767Z,1.73
2022-12-26T00:15:21.192Z,1.87
2022-12-26T00:17:49.065Z,1.70
2022-12-26T00:20:16.549Z,1.50
2022-12-26T00:22:44.722Z,1.87
2022-12-26T00:25:13.847Z,1.43
2022-12-26T00:27:41.280Z,1.80
2022-12-26T00:30:09.630Z,1.77
2022-12-26T00:32:37.055Z,1.70
2022-12-26T00:35:04.633Z,1.70
2022-12-26T00:37:32.038Z,1.70
2022-12-26T00:39:59.467Z,1.70
2022-12-26T00:42:28.903Z,1.73
2022-12-26T00:44:56.313Z,1.63
2022-12-26T00:47:23.739Z,2.03
2022-12-26T00:50:11.752Z,1.97
2022-12-26T00:52:38.563Z,1.70
2022-12-26T00:55:06.405Z,2.00
2022-12-26T00:57:35.200Z,2.27
2022-12-26T01:00:02.644Z,1.80
2022-12-26T01:02:39.283Z,1.83
2022-12-26T01:05:07.586Z,1.60
2022-12-26T01:07:36.411Z,1.70
2022-12-26T01:10:24.236Z,1.60
2022-12-26T01:12:52.995Z,2.00
2022-12-26T01:15:20.931Z,1.80
2022-12-26T01:17:48.366Z,2.07
2022-12-26T01:20:15.911Z,2.10
2022-12-26T01:22:43.590Z,1.93
2022-12-26T01:25:12.060Z,1.70
2022-12-26T01:27:39.533Z,1.90
2022-12-26T01:30:09.298Z,2.20
2022-12-26T01:32:36.756Z,1.90
2022-12-26T01:35:04.796Z,2.00
2022-12-26T01:37:32.231Z,1.93
2022-12-26T01:39:59.661Z,1.80
2022-12-26T01:42:27.543Z,2.03
2022-12-26T01:45:05.799Z,2.00
2022-12-26T01:47:40.709Z,1.93
2022-12-26T01:50:13.194Z,2.00
2022-12-26T01:52:43.237Z,1.90
2022-12-26T01:55:12.256Z,1.97
2022-12-26T01:57:41.756Z,2.10
2022-12-26T02:00:09.667Z,1.77
2022-12-26T02:02:57.652Z,2.37
2022-12-26T02:05:36.305Z,2.03
2022-12-26T02:08:05.666Z,2.13
2022-12-26T02:10:34.573Z,2.10
2022-12-26T02:13:02.396Z,2.30
2022-12-26T02:15:30.179Z,2.30
2022-12-26T02:17:57.676Z,2.20
2022-12-26T02:20:27.689Z,2.30
2022-12-26T02:23:24.667Z,1.90
2022-12-26T02:26:03.252Z,2.33
2022-12-26T02:28:45.649Z,2.40
2022-12-26T02:31:15.998Z,2.00
2022-12-26T02:33:47.661Z,2.10
2022-12-26T02:36:26.390Z,1.93
2022-12-26T02:38:58.110Z,1.80
2022-12-26T02:41:27.363Z,2.07
2022-12-26T02:44:01.667Z,2.10
2022-12-26T02:46:51.206Z,2.13
2022-12-26T02:49:21.651Z,2.30
2022-12-26T02:52:28.859Z,2.03
2022-12-26T02:55:19.533Z,2.03
2022-12-26T02:58:05.203Z,2.00
2022-12-26T03:00:52.563Z,2.03
2022-12-26T03:03:41.006Z,2.00
2022-12-26T03:06:28.003Z,2.30
2022-12-26T03:09:14.888Z,3.33
2022-12-26T03:12:01.570Z,2.33
2022-12-26T03:14:30.482Z,2.30
2022-12-26T03:17:21.439Z,2.40
2022-12-26T03:20:01.968Z,2.30
2022-12-26T03:22:33.174Z,2.00
2022-12-26T03:25:19.356Z,2.00
2022-12-26T03:27:47.253Z,2.13
2022-12-26T03:30:32.256Z,2.03
2022-12-26T03:32:59.958Z,2.33
2022-12-26T03:35:30.126Z,2.17
2022-12-26T03:37:58.323Z,2.30
2022-12-26T03:40:49.011Z,2.20
2022-12-26T03:43:38.665Z,2.90
2022-12-26T03:46:29.534Z,2.17
2022-12-26T03:49:16.345Z,2.00
2022-12-26T03:52:05.526Z,2.20
2022-12-26T03:54:54.091Z,2.47
2022-12-26T03:57:40.612Z,1.97
2022-12-26T04:00:23.413Z,2.13
2022-12-26T04:03:09.974Z,2.70
2022-12-26T04:05:57.098Z,2.10
2022-12-26T04:08:45.257Z,2.20
2022-12-26T04:11:33.191Z,2.40
2022-12-26T04:14:20.785Z,2.40
2022-12-26T04:17:20.200Z,2.40
2022-12-26T04:20:04.845Z,2.00
2022-12-26T04:22:54.039Z,2.20
2022-12-26T04:25:48.564Z,1.87
2022-12-26T04:28:35.932Z,1.50
2022-12-26T04:31:24.848Z,1.80
2022-12-26T04:34:10.767Z,1.77
2022-12-26T04:36:58.645Z,1.67
2022-12-26T04:39:45.960Z,1.60
2022-12-26T04:42:32.559Z,1.70
2022-12-26T04:45:00.191Z,1.33
2022-12-26T04:47:27.675Z,1.60
2022-12-26T04:50:12.333Z,1.57
2022-12-26T04:52:57.940Z,1.53
2022-12-26T04:55:25.558Z,1.30
2022-12-26T04:57:54.342Z,1.83
2022-12-26T05:00:24.067Z,1.60
2022-12-26T05:03:14.579Z,1.50
2022-12-26T05:06:09.826Z,1.50
2022-12-26T05:09:01.939Z,1.53
2022-12-26T05:11:30.471Z,1.60
2022-12-26T05:13:59.987Z,1.60
2022-12-26T05:16:46.255Z,1.80
2022-12-26T05:19:32.175Z,1.63
2022-12-26T05:22:18.255Z,1.20
2022-12-26T05:25:03.468Z,1.30
2022-12-26T05:27:52.644Z,1.47
2022-12-26T05:30:21.623Z,1.10
2022-12-26T05:33:06.544Z,1.30
2022-12-26T05:35:34.011Z,1.37
2022-12-26T05:38:01.528Z,1.40
2022-12-26T05:40:28.922Z,1.63
2022-12-26T05:42:56.304Z,1.30
2022-12-26T05:45:25.173Z,1.50
2022-12-26T05:47:58.151Z,1.67
2022-12-26T05:50:25.524Z,1.60
2022-12-26T05:52:53.143Z,1.77
2022-12-26T05:55:20.579Z,1.53
2022-12-26T05:57:48.388Z,1.40
2022-12-26T06:00:16.338Z,1.60
2022-12-26T06:02:45.234Z,1.40
2022-12-26T06:05:12.758Z,1.50
2022-12-26T06:07:40.203Z,1.37
2022-12-26T06:10:08.059Z,2.40
2022-12-26T06:12:35.787Z,1.33
2022-12-26T06:15:03.260Z,1.30
2022-12-26T06:17:30.719Z,1.40
2022-12-26T06:19:59.576Z,1.23
2022-12-26T06:22:27.051Z,1.30
2022-12-26T06:24:54.496Z,1.23
2022-12-26T06:27:21.973Z,1.67
2022-12-26T06:29:49.623Z,1.57
2022-12-26T06:32:17.095Z,1.23
2022-12-26T06:34:44.536Z,1.20
2022-12-26T06:37:13.594Z,1.10
2022-12-26T06:39:41.061Z,1.07
2022-12-26T06:42:09.661Z,1.17
2022-12-26T06:44:37.084Z,0.90
2022-12-26T06:47:04.612Z,1.23
2022-12-26T06:49:33.206Z,1.60
2022-12-26T06:52:00.921Z,1.70
2022-12-26T06:54:29.716Z,2.00
2022-12-26T06:56:57.205Z,1.80
2022-12-26T06:59:24.747Z,1.77
2022-12-26T07:01:52.287Z,1.63
2022-12-26T07:04:19.877Z,1.90
2022-12-26T07:06:47.341Z,1.90
2022-12-26T07:09:16.875Z,1.80
2022-12-26T07:11:46.522Z,1.50
2022-12-26T07:14:14.377Z,1.80
2022-12-26T07:16:42.923Z,1.70
2022-12-26T07:19:11.272Z,1.47
2022-12-26T07:21:41.024Z,1.30
2022-12-26T07:24:09.084Z,1.33
2022-12-26T07:26:36.575Z,1.20
2022-12-26T07:29:05.427Z,1.20
2022-12-26T07:31:32.908Z,1.10
2022-12-26T07:34:00.432Z,1.00
2022-12-26T07:36:28.104Z,1.00
2022-12-26T07:38:55.547Z,1.07
2022-12-26T07:41:40.391Z,1.03
2022-12-26T07:44:09.892Z,1.23
2022-12-26T07:46:37.396Z,1.07
2022-12-26T07:49:04.972Z,1.30
2022-12-26T07:51:32.585Z,1.90
2022-12-26T07:54:02.163Z,1.67
2022-12-26T07:56:32.250Z,1.90
2022-12-26T07:58:59.744Z,2.00
2022-12-26T08:01:28.735Z,1.60
2022-12-26T08:03:56.292Z,1.97
2022-12-26T08:06:23.781Z,1.70
2022-12-26T08:08:51.877Z,1.77
2022-12-26T08:11:22.347Z,1.63
2022-12-26T08:13:49.914Z,1.33
2022-12-26T08:16:17.609Z,1.40
2022-12-26T08:18:46.525Z,1.53
2022-12-26T08:21:14.063Z,1.60
2022-12-26T08:23:41.513Z,1.63
2022-12-26T08:26:09.822Z,1.90
2022-12-26T08:28:37.299Z,2.07
2022-12-26T08:31:06.549Z,1.77
2022-12-26T08:33:33.967Z,1.80
2022-12-26T08:36:03.902Z,1.60
2022-12-26T08:38:31.660Z,1.60
2022-12-26T08:41:01.217Z,1.63
2022-12-26T08:46:16.390Z,1.80
2022-12-26T08:48:44.612Z,2.03
2022-12-26T08:51:14.828Z,3.27
2022-12-26T08:53:42.660Z,2.80
2022-12-26T08:56:12.921Z,3.00
2022-12-26T08:58:40.505Z,2.10
2022-12-26T09:01:09.712Z,2.20
2022-12-26T09:03:37.315Z,2.20
2022-12-26T09:06:06.498Z,2.40
2022-12-26T09:08:36.107Z,2.73
2022-12-26T09:11:04.362Z,2.20
2022-12-26T09:13:32.048Z,2.70
2022-12-26T09:16:05.144Z,2.50
2022-12-26T09:18:32.676Z,2.43
2022-12-26T09:21:00.617Z,2.60
2022-12-26T09:23:28.078Z,2.17
2022-12-26T09:25:56.935Z,2.13
2022-12-26T09:28:24.426Z,2.00
2022-12-26T09:30:51.845Z,2.00
2022-12-26T09:33:19.305Z,2.10
2022-12-26T09:35:46.803Z,2.03
2022-12-26T09:38:14.284Z,1.80
2022-12-26T09:40:48.569Z,1.80
2022-12-26T09:43:23.043Z,2.30
2022-12-26T09:45:56.134Z,1.70
2022-12-26T09:48:28.248Z,2.07
2022-12-26T09:50:55.725Z,1.70
2022-12-26T09:53:27.361Z,2.20
2022-12-26T09:55:56.991Z,1.67
2022-12-26T09:58:27.940Z,1.43
2022-12-26T10:00:59.646Z,1.30
2022-12-26T10:03:27.837Z,1.47
2022-12-26T10:06:10.228Z,1.30
2022-12-26T10:08:47.635Z,1.30
2022-12-26T10:11:20.076Z,1.30
2022-12-26T10:13:53.584Z,1.30
2022-12-26T10:16:23.364Z,1.30
2022-12-26T10:18:54.596Z,1.20
2022-12-26T10:21:28.409Z,1.43
2022-12-26T10:23:56.809Z,1.40
2022-12-26T10:26:26.195Z,1.20
2022-12-26T10:28:58.530Z,0.97
2022-12-26T10:31:28.076Z,1.40
2022-12-26T10:33:57.877Z,1.30
2022-12-26T10:36:33.516Z,1.53
2022-12-26T10:39:01.793Z,1.20
2022-12-26T10:41:33.416Z,1.40
2022-12-26T10:44:02.510Z,3.43
2022-12-26T10:46:41.835Z,2.80
2022-12-26T10:49:11.259Z,1.70
2022-12-26T10:51:39.051Z,1.23
2022-12-26T10:54:11.779Z,1.30
2022-12-26T10:56:39.362Z,1.17
2022-12-26T10:59:12.589Z,1.27
2022-12-26T11:01:47.244Z,1.00
2022-12-26T11:04:31.333Z,1.10
2022-12-26T11:07:09.900Z,1.30
2022-12-26T11:09:39.948Z,1.10
2022-12-26T11:12:07.877Z,0.87
2022-12-26T11:14:38.615Z,1.10
2022-12-26T11:17:07.886Z,1.10
2022-12-26T11:19:36.480Z,1.03
2022-12-26T11:22:22.161Z,1.37
2022-12-26T11:25:03.527Z,1.20
2022-12-26T11:27:30.969Z,1.40
2022-12-26T11:30:16.275Z,1.33
2022-12-26T11:32:44.644Z,1.23
2022-12-26T11:35:17.831Z,1.10
2022-12-26T11:37:46.092Z,1.30
2022-12-26T11:40:17.693Z,1.10
2022-12-26T11:42:49.112Z,1.20
2022-12-26T11:45:22.500Z,0.90
2022-12-26T11:47:50.351Z,1.00
2022-12-26T11:50:21.426Z,1.00
2022-12-26T11:52:52.707Z,1.10
2022-12-26T11:55:28.453Z,1.30
2022-12-26T11:57:58.598Z,0.90
2022-12-26T12:00:28.962Z,1.10
2022-12-26T12:02:56.578Z,1.20
2022-12-26T12:05:30.895Z,1.10
2022-12-26T12:08:10.657Z,1.07
2022-12-26T12:10:54.284Z,0.97
2022-12-26T12:13:39.665Z,1.20
2022-12-26T12:16:12.246Z,0.90
2022-12-26T12:18:46.046Z,1.00
2022-12-26T12:21:18.797Z,1.10
2022-12-26T12:23:55.272Z,1.07
2022-12-26T12:26:27.668Z,1.10
2022-12-26T12:29:12.817Z,1.30
2022-12-26T12:31:49.845Z,1.00
2022-12-26T12:34:21.478Z,1.60
2022-12-26T12:36:55.698Z,1.20
2022-12-26T12:39:33.028Z,1.10
2022-12-26T12:42:16.061Z,0.80
2022-12-26T12:44:56.521Z,1.00
2022-12-26T12:47:33.163Z,1.10
2022-12-26T12:50:03.901Z,1.17
2022-12-26T12:52:38.866Z,1.23
2022-12-26T12:55:12.243Z,1.13
2022-12-26T12:57:43.138Z,1.10
2022-12-26T13:00:15.568Z,1.10
2022-12-26T13:02:46.575Z,1.00
2022-12-26T13:05:17.915Z,1.03
2022-12-26T13:07:47.672Z,1.40
2022-12-26T13:10:18.245Z,1.20
2022-12-26T13:12:46.628Z,1.50
2022-12-26T13:15:20.696Z,1.70
2022-12-26T13:17:51.946Z,1.40
2022-12-26T13:20:22.884Z,1.40
2022-12-26T13:23:11.338Z,1.37
2022-12-26T13:25:41.496Z,1.20
2022-12-26T13:28:12.899Z,1.30
2022-12-26T13:30:40.531Z,1.43
2022-12-26T13:33:14.640Z,1.40
2022-12-26T13:35:53.842Z,1.10
2022-12-26T13:38:21.542Z,1.20
2022-12-26T13:40:50.933Z,1.30
2022-12-26T13:43:38.115Z,0.93
2022-12-26T13:46:05.799Z,1.10
2022-12-26T13:48:57.772Z,1.17
2022-12-26T13:51:58.610Z,1.47
2022-12-26T13:54:27.243Z,1.47
2022-12-26T13:56:59.957Z,1.40
2022-12-26T13:59:29.678Z,1.17
2022-12-26T14:02:07.032Z,1.30
2022-12-26T14:04:42.104Z,1.53
2022-12-26T14:07:19.598Z,1.10
2022-12-26T14:09:53.876Z,1.10
2022-12-26T14:12:33.733Z,1.13
2022-12-26T14:15:19.395Z,1.30
2022-12-26T14:17:50.331Z,1.10
2022-12-26T14:20:26.013Z,1.17
2022-12-26T14:22:58.609Z,1.33
2022-12-26T14:25:27.793Z,1.40
2022-12-26T14:27:58.336Z,1.47
2022-12-26T14:30:29.577Z,1.20
2022-12-26T14:33:08.544Z,2.10
2022-12-26T14:35:39.969Z,0.90
2022-12-26T14:38:18.852Z,1.40
2022-12-26T14:40:58.515Z,1.30
2022-12-26T14:43:35.706Z,1.83
2022-12-26T14:46:04.441Z,1.60
2022-12-26T14:48:48.806Z,2.40
2022-12-26T14:51:31.527Z,2.70
2022-12-26T14:54:23.472Z,2.80
2022-12-26T14:56:51.277Z,2.40
2022-12-26T14:59:27.287Z,1.80
2022-12-26T15:02:01.950Z,2.20
2022-12-26T15:04:48.258Z,2.83
2022-12-26T15:07:42.906Z,3.70
2022-12-26T15:10:22.640Z,2.60
2022-12-26T15:13:15.190Z,2.90
2022-12-26T15:15:48.575Z,2.27
2022-12-26T15:18:37.728Z,3.13
2022-12-26T15:21:17.782Z,3.50
2022-12-26T15:24:00.138Z,2.83
2022-12-26T15:26:45.534Z,2.73
2022-12-26T15:29:31.603Z,2.50
2022-12-26T15:32:04.559Z,2.60
2022-12-26T15:34:41.072Z,3.27
2022-12-26T15:37:12.544Z,2.17
2022-12-26T15:39:43.572Z,2.47
2022-12-26T15:42:21.408Z,2.47
2022-12-26T15:44:56.458Z,2.47
2022-12-26T15:47:29.097Z,3.47
2022-12-26T15:50:00.699Z,1.53
2022-12-26T15:52:34.553Z,1.80
2022-12-26T15:55:15.824Z,1.70
2022-12-26T15:57:49.590Z,1.53
2022-12-26T16:00:18.374Z,1.70
2022-12-26T16:02:48.994Z,1.40
2022-12-26T16:05:37.755Z,1.43
2022-12-26T16:08:10.596Z,1.50
2022-12-26T16:10:38.297Z,1.60
2022-12-26T16:13:07.733Z,1.50
2022-12-26T16:15:35.595Z,2.20
2022-12-26T16:18:18.151Z,1.70
2022-12-26T16:21:03.555Z,2.37
2022-12-26T16:23:32.959Z,3.47
2022-12-26T16:26:00.896Z,2.80
2022-12-26T16:28:31.556Z,3.40
2022-12-26T16:30:59.430Z,4.30
2022-12-26T16:33:30.014Z,3.10
2022-12-26T16:36:00.942Z,3.10
2022-12-26T16:38:30.908Z,2.50
2022-12-26T16:41:00.465Z,3.60
2022-12-26T16:43:29.273Z,2.43
2022-12-26T16:46:02.508Z,2.33
2022-12-26T16:48:32.508Z,2.70
2022-12-26T16:51:01.036Z,3.20
2022-12-26T16:53:42.758Z,6.40
2022-12-26T16:56:23.925Z,3.93
2022-12-26T16:58:52.159Z,2.80
2022-12-26T17:01:22.135Z,3.10
2022-12-26T17:03:52.520Z,2.90
2022-12-26T17:06:25.007Z,2.40
2022-12-26T17:08:53.090Z,2.20
2022-12-26T17:11:26.942Z,3.17
2022-12-26T17:13:54.926Z,4.27
2022-12-26T17:16:24.065Z,4.33
2022-12-26T17:18:54.259Z,3.30
2022-12-26T17:21:23.580Z,4.00
2022-12-26T17:24:01.981Z,3.90
2022-12-26T17:26:30.456Z,3.60
2022-12-26T17:28:57.915Z,4.13
2022-12-26T17:31:34.400Z,3.60
2022-12-26T17:34:07.417Z,3.63
2022-12-26T17:39:23.662Z,4.70
2022-12-26T17:41:52.742Z,5.30
2022-12-26T17:44:39.872Z,5.40
2022-12-26T17:47:14.068Z,5.07
2022-12-26T17:49:42.885Z,5.17
2022-12-26T17:52:10.877Z,5.43
2022-12-26T17:54:38.372Z,4.70
2022-12-26T17:57:05.808Z,4.70
2022-12-26T17:59:33.282Z,4.97
2022-12-26T18:02:00.785Z,5.23
2022-12-26T18:04:28.328Z,4.90
2022-12-26T18:06:57.123Z,3.90
2022-12-26T18:09:26.538Z,4.13
2022-12-26T18:11:54.579Z,4.63
2022-12-26T18:14:22.458Z,3.33
2022-12-26T18:16:50.513Z,3.37
2022-12-26T18:19:18.731Z,4.23
2022-12-26T18:21:46.337Z,4.23
2022-12-26T18:24:15.095Z,3.60
2022-12-26T18:26:42.610Z,4.47
2022-12-26T18:29:10.617Z,3.60
2022-12-26T18:31:39.407Z,3.90
2022-12-26T18:34:07.319Z,3.80
2022-12-26T18:36:36.575Z,3.13
2022-12-26T18:39:04.516Z,2.83
2022-12-26T18:41:33.405Z,3.00
2022-12-26T18:44:00.831Z,3.30
2022-12-26T18:46:29.747Z,3.53
2022-12-26T18:48:57.676Z,2.33
2022-12-26T18:51:25.865Z,2.70
2022-12-26T18:53:53.359Z,3.77
2022-12-26T18:56:21.966Z,3.00
2022-12-26T18:58:57.417Z,3.07
2022-12-26T19:01:25.359Z,2.50
2022-12-26T19:03:53.775Z,3.10
2022-12-26T19:06:23.052Z,2.20
2022-12-26T19:08:50.474Z,2.37
2022-12-26T19:11:17.913Z,3.40
2022-12-26T19:13:45.783Z,4.90
2022-12-26T19:16:14.685Z,2.93
2022-12-26T19:18:42.399Z,2.80
2022-12-26T19:21:12.435Z,2.50
2022-12-26T19:23:39.971Z,2.10
2022-12-26T19:26:10.864Z,2.90
2022-12-26T19:28:38.600Z,2.90
2022-12-26T19:31:09.729Z,4.27
2022-12-26T19:33:38.525Z,2.43
2022-12-26T19:36:06.759Z,2.20
2022-12-26T19:38:34.196Z,1.97
2022-12-26T19:41:02.207Z,2.20
2022-12-26T19:43:29.651Z,1.90
2022-12-26T19:46:00.160Z,2.00
2022-12-26T19:48:27.668Z,2.30
2022-12-26T19:50:56.445Z,2.07
2022-12-26T19:53:23.906Z,2.40
2022-12-26T19:55:51.314Z,3.07
2022-12-26T19:58:18.805Z,3.47
2022-12-26T20:00:46.342Z,3.00
2022-12-26T20:03:13.917Z,2.63
2022-12-26T20:05:42.192Z,2.37
2022-12-26T20:08:11.369Z,2.10
2022-12-26T20:10:38.917Z,2.63
2022-12-26T20:13:06.448Z,1.73
2022-12-26T20:15:33.886Z,2.40
2022-12-26T20:18:01.424Z,2.20
2022-12-26T20:20:29.635Z,2.30
2022-12-26T20:22:57.141Z,2.37
2022-12-26T20:25:25.916Z,2.73
2022-12-26T20:27:53.365Z,2.57
2022-12-26T20:30:20.904Z,3.67
2022-12-26T20:32:48.363Z,3.70
2022-12-26T20:35:15.854Z,3.40
2022-12-26T20:37:43.299Z,2.90
2022-12-26T20:40:11.339Z,2.90
2022-12-26T20:42:40.107Z,4.00
2022-12-26T20:45:08.190Z,4.17
2022-12-26T20:47:35.661Z,4.27
2022-12-26T20:50:03.121Z,4.00
2022-12-26T20:52:30.617Z,3.50
2022-12-26T20:54:58.046Z,3.20
2022-12-26T20:57:25.581Z,3.07
2022-12-26T20:59:54.431Z,4.50
2022-12-26T21:02:22.024Z,3.50
2022-12-26T21:04:49.735Z,4.83
2022-12-26T21:07:17.157Z,3.80
2022-12-26T21:09:46.547Z,3.23
2022-12-26T21:12:14.380Z,3.90
2022-12-26T21:14:42.206Z,3.27
2022-12-26T21:17:11.154Z,3.00
2022-12-26T21:19:38.654Z,2.57
2022-12-26T21:22:06.150Z,2.87
2022-12-26T21:24:33.995Z,3.00
2022-12-26T21:27:01.464Z,3.10
2022-12-26T21:29:29.733Z,3.23
2022-12-26T21:31:57.623Z,2.50
2022-12-26T21:34:27.725Z,2.60
2022-12-26T21:37:13.118Z,2.80
2022-12-26T21:39:41.006Z,2.30
2022-12-26T21:42:09.098Z,2.50
2022-12-26T21:44:36.852Z,2.60
2022-12-26T21:47:04.603Z,2.90
2022-12-26T21:49:33.402Z,3.37
2022-12-26T21:52:00.858Z,3.23
2022-12-26T21:54:49.027Z,3.10
2022-12-26T21:57:17.127Z,4.50
2022-12-26T21:59:56.955Z,4.90
2022-12-26T22:02:42.597Z,3.60
2022-12-26T22:05:11.652Z,4.10
2022-12-26T22:07:39.104Z,3.80
2022-12-26T22:10:07.153Z,4.23
2022-12-26T22:12:52.225Z,4.17
2022-12-26T22:15:37.420Z,4.10
2022-12-26T22:18:04.892Z,3.83
2022-12-26T22:20:34.942Z,4.13
2022-12-26T22:23:02.479Z,3.80
2022-12-26T22:25:30.203Z,3.97
2022-12-26T22:27:57.639Z,3.90
2022-12-26T22:30:25.063Z,4.37
2022-12-26T22:32:52.608Z,4.30
2022-12-26T22:35:19.973Z,3.20
2022-12-26T22:37:48.730Z,3.80
2022-12-26T22:40:16.224Z,4.00
2022-12-26T22:42:43.670Z,3.80
2022-12-26T22:45:11.318Z,4.10
2022-12-26T22:47:38.743Z,3.03
2022-12-26T22:50:06.504Z,2.27
2022-12-26T22:52:33.927Z,2.03
2022-12-26T22:55:02.699Z,1.83
2022-12-26T22:57:30.147Z,1.83
2022-12-26T23:00:08.156Z,1.73
2022-12-26T23:02:36.599Z,1.63
2022-12-26T23:05:04.924Z,2.00
2022-12-26T23:07:32.592Z,1.80
2022-12-26T23:10:00.339Z,2.03
2022-12-26T23:12:44.421Z,1.67
2022-12-26T23:15:13.013Z,1.70
2022-12-26T23:18:00.177Z,1.80
2022-12-26T23:20:47.414Z,1.67
2022-12-26T23:23:15.115Z,1.70
2022-12-26T23:25:42.753Z,2.03
2022-12-26T23:28:28.769Z,1.97
2022-12-26T23:30:56.988Z,1.97
2022-12-26T23:33:24.445Z,1.90
2022-12-26T23:35:52.025Z,1.93
2022-12-26T23:38:19.439Z,2.20
2022-12-26T23:40:46.922Z,1.87
2022-12-26T23:43:15.895Z,1.80
2022-12-26T23:45:43.718Z,2.10
2022-12-26T23:48:11.182Z,2.20
2022-12-26T23:50:38.735Z,1.97
2022-12-26T23:53:06.552Z,2.10
2022-12-26T23:55:34.166Z,2.00
2022-12-26T23:58:01.627Z,2.23
